Time;durP1;ratioP1;P1;durP2;ratioP2;P2;SDS_P1;SDS_P2;PMS_P1;PMS_P2;Temp;Humidity;BMP_temperature;BMP_pressure;BME280_temperature;BME280_humidity;BME280_pressure;Samples;Min_cycle;Max_cycle;Signal;HPM_P1;HPM_P2
2022/08/04 00:00:44;;;;;;;;;3.00;3.00;;;;;29.97;37.96;100587.53;4865213;29;45477;-60
2022/08/04 00:03:23;;;;;;;;;2.40;1.80;;;;;29.81;38.45;100563.94;4848953;29;46787;-59
2022/08/04 00:06:14;;;;;;;;;4.20;4.20;;;;;29.70;38.35;100561.53;4881232;29;45315;-58
2022/08/04 00:08:39;;;;;;;;;3.40;3.00;;;;;29.93;38.08;100591.41;4865334;29;45451;-59
2022/08/04 00:11:06;;;;;;;;;2.25;2.25;;;;;29.91;38.46;100582.47;4881840;29;45375;-60
2022/08/04 00:13:36;;;;;;;;;3.80;3.00;;;;;29.93;38.12;100588.59;4881072;29;46082;-58
2022/08/04 00:16:04;;;;;;;;;2.80;2.80;;;;;29.87;38.45;100580.31;4881216;29;45348;-58
2022/08/04 00:18:34;;;;;;;;;1.00;1.00;;;;;29.83;37.84;100581.38;4864569;29;45459;-60
2022/08/04 00:21:04;;;;;;;;;4.80;4.20;;;;;29.79;38.24;100577.56;4840941;29;45299;-60
2022/08/04 00:23:30;;;;;;;;;2.60;1.80;;;;;29.85;37.70;100585.50;4847453;29;45438;-59
2022/08/04 00:25:56;;;;;;;;;4.00;2.80;;;;;29.49;37.94;100530.44;4848560;29;45931;-59
2022/08/04 00:28:21;;;;;;;;;2.75;1.00;;;;;29.83;37.65;100581.38;4864378;29;45497;-61
2022/08/04 00:30:47;;;;;;;;;2.75;2.75;;;;;29.65;37.67;100564.56;4848820;29;45425;-60
2022/08/04 00:33:17;;;;;;;;;3.00;2.00;;;;;29.79;38.25;100578.41;4863940;29;46672;-59
2022/08/04 00:35:43;;;;;;;;;8.80;6.60;;;;;29.80;37.71;100580.06;4849309;29;45378;-60
2022/08/04 00:38:08;;;;;;;;;10.00;9.00;;;;;29.69;37.82;100556.19;4848592;29;45457;-59
2022/08/04 00:40:42;;;;;;;;;5.00;3.50;;;;;29.82;38.12;100580.53;4864334;29;45521;-58
2022/08/04 00:43:20;;;;;;;;;3.20;2.80;;;;;29.67;38.79;100561.38;4863654;29;46848;-58
2022/08/04 00:46:14;;;;;;;;;2.60;2.60;;;;;29.68;39.72;100572.38;4848491;29;45432;-58
2022/08/04 00:48:52;;;;;;;;;5.60;5.60;;;;;29.70;39.37;100588.97;4866480;29;45606;-59
2022/08/04 00:51:45;;;;;;;;;4.00;4.00;;;;;29.71;39.57;100585.78;4863446;29;45477;-59
2022/08/04 00:54:24;;;;;;;;;1.20;1.20;;;;;29.58;39.60;100567.97;4880512;29;45775;-58
2022/08/04 00:57:07;;;;;;;;;12.40;7.60;;;;;29.59;39.74;100565.94;4863711;29;45393;-59
2022/08/04 00:59:54;;;;;;;;;4.40;3.20;;;;;29.68;39.47;100586.50;4880732;29;45350;-60
2022/08/04 01:02:45;;;;;;;;;3.20;2.80;;;;;29.62;39.43;100579.41;4880690;29;45459;-60
2022/08/04 01:05:39;;;;;;;;;3.40;2.60;;;;;29.64;39.38;100568.56;4880342;29;45654;-58
2022/08/04 01:08:33;;;;;;;;;3.00;3.00;;;;;29.65;40.16;100583.53;4880189;29;45415;-60
2022/08/04 01:11:14;;;;;;;;;3.80;3.80;;;;;29.61;39.91;100574.94;4849194;29;45508;-58
2022/08/04 01:13:50;;;;;;;;;3.00;3.00;;;;;29.54;40.79;100585.94;4861726;29;45260;-60
2022/08/04 01:16:16;;;;;;;;;4.20;4.20;;;;;29.42;40.19;100583.84;4860235;29;45423;-60
2022/08/04 01:18:51;;;;;;;;;3.20;3.00;;;;;29.40;40.57;100580.56;4844534;29;45314;-58
2022/08/04 01:21:28;;;;;;;;;5.00;3.40;;;;;28.83;40.47;100515.81;4861688;29;45376;-59
2022/08/04 01:24:08;;;;;;;;;6.00;6.00;;;;;29.01;40.56;100547.59;4861651;29;45371;-59
2022/08/04 01:26:51;;;;;;;;;3.40;3.40;;;;;29.14;40.47;100570.28;4861664;29;46215;-59
2022/08/04 01:29:17;;;;;;;;;1.20;1.20;;;;;29.13;40.82;100582.75;4861287;29;45479;-59
2022/08/04 01:31:42;;;;;;;;;7.50;4.00;;;;;29.01;41.13;100581.50;4860343;29;45830;-58
2022/08/04 01:34:12;;;;;;;;;2.00;2.00;;;;;28.90;41.45;100586.72;4861585;29;45811;-59
2022/08/04 01:36:42;;;;;;;;;4.00;4.00;;;;;28.90;41.26;100586.72;4861448;29;46549;-60
2022/08/04 01:39:52;;;;;;;;;6.80;6.20;;;;;28.93;41.37;100582.38;4860055;29;45316;-58
2022/08/04 01:41:53;;;;;;;;;2.00;2.00;;;;;28.74;40.95;100561.03;4857631;29;45363;-60
2022/08/04 01:44:18;;;;;;;;;4.75;4.75;;;;;28.70;41.57;100576.97;4859780;29;45342;-60
2022/08/04 01:46:45;;;;;;;;;1.50;1.25;;;;;28.70;41.68;100579.00;4843010;29;47433;-59
2022/08/04 01:49:10;;;;;;;;;3.00;3.00;;;;;28.73;41.02;100573.50;4861213;29;45426;-58
2022/08/04 01:51:38;;;;;;;;;3.00;3.00;;;;;28.70;41.93;100574.16;4860002;29;45292;-61
2022/08/04 01:54:03;;;;;;;;;2.00;2.00;;;;;28.65;41.29;100568.72;4844705;29;45624;-59
2022/08/04 01:56:29;;;;;;;;;0.00;0.00;;;;;28.58;41.63;100560.78;4861054;29;45561;-59
2022/08/04 01:58:56;;;;;;;;;3.75;3.75;;;;;28.49;42.44;100565.66;4828898;29;45471;-59
2022/08/04 02:01:21;;;;;;;;;3.40;3.40;;;;;28.42;42.11;100560.50;4844462;29;45344;-59
2022/08/04 02:03:47;;;;;;;;;2.50;2.50;;;;;28.47;42.14;100557.50;4830094;28;45545;-61
2022/08/04 02:06:25;;;;;;;;;3.00;2.00;;;;;28.48;42.28;100564.81;4864647;29;46577;-60
2022/08/04 02:09:07;;;;;;;;;2.00;2.00;;;;;28.36;42.00;100540.13;4867390;29;45362;-60
2022/08/04 02:11:33;;;;;;;;;6.00;3.00;;;;;28.40;42.59;100552.38;4867205;29;45420;-60
2022/08/04 02:14:39;;;;;;;;;5.00;3.75;;;;;28.18;42.35;100535.69;4883117;29;45447;-59
2022/08/04 02:17:31;;;;;;;;;6.00;4.60;;;;;28.32;42.68;100560.91;4867839;29;45363;-60
2022/08/04 02:20:08;;;;;;;;;3.80;3.80;;;;;28.31;42.30;100564.88;4859641;29;45438;-59
2022/08/04 02:22:40;;;;;;;;;4.20;2.40;;;;;28.11;42.29;100536.19;4850637;29;45437;-60
2022/08/04 02:25:07;;;;;;;;;7.60;5.00;;;;;28.23;42.96;100560.94;4851491;29;45466;-59
2022/08/04 02:28:09;;;;;;;;;5.60;5.60;;;;;28.20;43.13;100548.28;4882795;29;46582;-60
2022/08/04 02:30:55;;;;;;;;;5.80;5.80;;;;;28.11;42.50;100530.56;4868544;29;45544;-60
2022/08/04 02:33:24;;;;;;;;;2.20;2.20;;;;;27.98;43.02;100502.25;4865985;29;45530;-59
2022/08/04 02:35:54;;;;;;;;;5.20;4.00;;;;;28.16;42.72;100543.66;4866445;29;45376;-60
2022/08/04 02:38:28;;;;;;;;;3.60;3.60;;;;;28.16;43.19;100540.84;4850262;29;45550;-60
2022/08/04 02:40:55;;;;;;;;;3.00;3.00;;;;;28.07;43.12;100538.88;4882191;29;45461;-59
2022/08/04 02:43:20;;;;;;;;;3.00;2.00;;;;;28.08;42.93;100550.97;4866060;29;45371;-60
2022/08/04 02:45:46;;;;;;;;;5.25;3.75;;;;;27.89;43.14;100526.81;4849946;29;45694;-60
2022/08/04 02:48:12;;;;;;;;;3.00;3.00;;;;;28.03;43.07;100551.16;4850307;29;46746;-60
2022/08/04 02:50:37;;;;;;;;;3.25;3.00;;;;;28.01;43.11;100546.69;4865594;29;45349;-59
2022/08/04 02:53:04;;;;;;;;;3.00;2.25;;;;;28.03;43.00;100553.97;4865315;29;45430;-60
2022/08/04 02:55:29;;;;;;;;;2.00;2.00;;;;;27.87;42.97;100546.88;4850841;29;45513;-60
2022/08/04 02:57:57;;;;;;;;;5.25;5.25;;;;;27.90;43.60;100556.66;4849954;29;45395;-59
2022/08/04 03:00:22;;;;;;;;;5.40;3.80;;;;;27.78;43.22;100540.44;4882195;29;45434;-60
2022/08/04 03:03:20;;;;;;;;;3.25;2.25;;;;;27.98;43.44;100563.44;4846970;29;47024;-59
2022/08/04 03:06:09;;;;;;;;;4.40;2.20;;;;;27.90;43.60;100565.13;4852084;29;45587;-58
2022/08/04 03:08:40;;;;;;;;;2.80;2.80;;;;;27.85;43.82;100568.94;4860373;29;46662;-60
2022/08/04 03:11:33;;;;;;;;;4.40;4.40;;;;;27.76;43.92;100567.31;4862942;29;45354;-60
2022/08/04 03:14:17;;;;;;;;;3.00;2.00;;;;;27.63;43.80;100538.97;4862852;29;45438;-60
2022/08/04 03:17:13;;;;;;;;;3.20;3.20;;;;;27.65;43.91;100567.66;4832353;29;45380;-60
2022/08/04 03:19:58;;;;;;;;;3.00;3.00;;;;;27.67;44.11;100565.34;4863222;29;46270;-59
2022/08/04 03:23:05;;;;;;;;;2.40;2.40;;;;;27.58;44.63;100562.50;4862881;29;45420;-60
2022/08/04 03:25:42;;;;;;;;;2.40;2.40;;;;;27.57;44.26;100555.22;4862795;29;45308;-60
2022/08/04 03:28:23;;;;;;;;;2.20;2.20;;;;;27.63;44.43;100564.34;4847497;29;45516;-60
2022/08/04 03:31:10;;;;;;;;;2.80;2.80;;;;;27.53;44.36;100559.03;4863192;29;45319;-60
2022/08/04 03:33:52;;;;;;;;;3.00;2.60;;;;;27.50;44.63;100554.88;4846291;29;45521;-60
2022/08/04 03:37:07;;;;;;;;;3.00;3.00;;;;;27.37;44.68;100545.41;4846385;29;45463;-60
2022/08/04 03:40:09;;;;;;;;;3.00;3.00;;;;;27.41;44.10;100552.06;4826827;29;45544;-59
2022/08/04 03:42:43;;;;;;;;;5.00;5.00;;;;;27.41;44.34;100559.66;4841917;29;45791;-60
2022/08/04 03:45:20;;;;;;;;;4.80;4.00;;;;;27.29;44.78;100549.91;4842885;29;45444;-58
2022/08/04 03:48:01;;;;;;;;;5.20;4.00;;;;;27.40;44.72;100563.66;4846399;29;45303;-59
2022/08/04 03:50:41;;;;;;;;;3.20;3.00;;;;;27.23;45.06;100556.84;4863122;29;45481;-59
2022/08/04 03:53:30;;;;;;;;;3.40;3.40;;;;;26.91;44.68;100519.56;4830705;29;45963;-60
2022/08/04 03:56:34;;;;;;;;;4.60;4.60;;;;;27.14;45.25;100554.03;4835716;29;45508;-60
2022/08/04 03:59:07;;;;;;;;;2.00;2.00;;;;;27.06;45.69;100547.22;4858342;29;45522;-60
2022/08/04 04:02:10;;;;;;;;;3.00;3.00;;;;;27.05;45.38;100539.13;4864972;29;45258;-61
2022/08/04 04:04:50;;;;;;;;;4.00;3.00;;;;;27.04;45.71;100532.66;4881308;29;46637;-59
2022/08/04 04:07:24;;;;;;;;;2.60;2.60;;;;;27.08;45.14;100527.19;4864692;29;45431;-60
2022/08/04 04:10:12;;;;;;;;;4.80;4.40;;;;;27.06;45.51;100529.50;4881294;29;45375;-59
2022/08/04 04:12:46;;;;;;;;;2.00;2.00;;;;;27.01;45.08;100524.84;4881677;29;45338;-60
2022/08/04 04:15:46;;;;;;;;;2.00;2.00;;;;;27.06;45.08;100535.97;4881571;29;46713;-60
2022/08/04 04:18:20;;;;;;;;;2.60;2.60;;;;;26.85;45.27;100501.97;4816946;29;45404;-59
2022/08/04 04:20:55;;;;;;;;;4.40;4.40;;;;;27.05;45.67;100564.47;4849367;29;45373;-60
2022/08/04 04:23:29;;;;;;;;;3.00;3.00;;;;;27.10;45.20;100575.56;4881362;29;45454;-58
2022/08/04 04:26:32;;;;;;;;;3.00;3.00;;;;;27.11;45.38;100582.03;4863968;29;46529;-61
2022/08/04 04:29:34;;;;;;;;;4.00;4.00;;;;;26.97;45.90;100574.56;4880959;29;45289;-60
2022/08/04 04:32:31;;;;;;;;;2.20;2.00;;;;;26.97;45.46;100583.00;4850926;29;45423;-60
2022/08/04 04:35:08;;;;;;;;;3.20;3.20;;;;;26.98;45.49;100584.66;4881452;29;45959;-60
2022/08/04 04:37:42;;;;;;;;;4.80;4.20;;;;;27.05;45.34;100578.56;4880999;29;45510;-60
2022/08/04 04:40:35;;;;;;;;;3.00;3.00;;;;;27.10;45.19;100595.25;4881022;29;45480;-59
2022/08/04 04:43:09;;;;;;;;;4.40;3.80;;;;;27.05;45.00;100572.91;4881083;29;45371;-59
2022/08/04 04:46:12;;;;;;;;;7.00;4.00;;;;;26.89;45.39;100609.94;4881046;29;45311;-60
2022/08/04 04:48:50;;;;;;;;;3.00;3.00;;;;;26.91;45.60;100626.53;4840686;29;45745;-60
2022/08/04 04:51:15;;;;;;;;;7.80;5.20;;;;;26.95;46.63;100632.34;4874015;29;45768;-60
2022/08/04 04:54:12;;;;;;;;;4.00;4.00;;;;;26.86;47.25;100621.03;4880759;29;45393;-60
2022/08/04 04:56:41;;;;;;;;;2.80;2.80;;;;;26.85;47.13;100625.00;4863656;29;45558;-61
2022/08/04 04:59:09;;;;;;;;;4.00;2.60;;;;;26.84;46.65;100635.41;4880742;29;46379;-60
2022/08/04 05:01:47;;;;;;;;;4.20;3.20;;;;;26.78;46.90;100636.72;4848258;29;45787;-60
2022/08/04 05:04:27;;;;;;;;;4.00;4.00;;;;;26.59;46.85;100622.91;4822361;29;45379;-62
2022/08/04 05:07:27;;;;;;;;;2.80;2.80;;;;;26.55;46.57;100621.88;4880748;29;45527;-60
2022/08/04 05:09:55;;;;;;;;;2.40;2.40;;;;;26.37;46.38;100591.69;4863528;29;45358;-63
2022/08/04 05:12:24;;;;;;;;;4.60;3.00;;;;;26.48;46.49;100622.34;4880945;29;45287;-60
2022/08/04 05:14:49;;;;;;;;;2.60;2.60;;;;;26.45;46.56;100640.72;4880521;29;45615;-62
2022/08/04 05:17:22;;;;;;;;;2.25;2.25;;;;;26.45;46.67;100625.81;4848540;29;45352;-63
2022/08/04 05:19:58;;;;;;;;;2.40;2.40;;;;;26.40;47.08;100607.09;4863474;29;46886;-63
2022/08/04 05:22:29;;;;;;;;;4.60;2.00;;;;;26.09;47.54;100565.72;4848995;29;45391;-61
2022/08/04 05:25:04;;;;;;;;;3.00;2.00;;;;;26.20;47.24;100611.25;4849183;29;45358;-63
2022/08/04 05:27:36;;;;;;;;;5.80;4.40;;;;;26.16;47.54;100627.13;4849123;29;45466;-63
2022/08/04 05:30:03;;;;;;;;;4.00;4.00;;;;;26.12;47.04;100608.09;4847940;29;45455;-63
2022/08/04 05:32:39;;;;;;;;;2.20;2.00;;;;;26.25;47.87;100640.09;4880562;29;45422;-62
2022/08/04 05:35:19;;;;;;;;;4.40;3.00;;;;;26.22;47.70;100642.72;4864019;29;45341;-63
2022/08/04 05:37:45;;;;;;;;;3.20;3.20;;;;;26.15;46.88;100631.91;4866365;29;45477;-63
2022/08/04 05:40:11;;;;;;;;;3.60;3.60;;;;;26.30;47.11;100650.38;4869958;29;46126;-63
2022/08/04 05:42:37;;;;;;;;;5.00;3.00;;;;;26.23;46.78;100631.16;4869526;29;45430;-64
2022/08/04 05:45:04;;;;;;;;;6.20;4.20;;;;;26.21;46.81;100636.22;4850977;29;45450;-63
2022/08/04 05:47:30;;;;;;;;;3.00;2.00;;;;;26.27;46.55;100636.13;4851352;29;45470;-61
2022/08/04 05:49:56;;;;;;;;;7.40;2.60;;;;;26.37;46.41;100638.69;4835514;29;46155;-63
2022/08/04 05:52:21;;;;;;;;;3.00;3.00;;;;;26.18;46.57;100608.78;4850336;29;45411;-63
2022/08/04 05:54:47;;;;;;;;;4.25;3.00;;;;;26.43;46.38;100637.41;4880319;29;45433;-62
2022/08/04 05:57:12;;;;;;;;;3.25;3.25;;;;;26.41;46.16;100627.63;4869441;29;45345;-62
2022/08/04 05:59:39;;;;;;;;;6.00;5.00;;;;;26.45;45.33;100637.91;4869483;29;46687;-63
2022/08/04 06:02:05;;;;;;;;;3.40;2.80;;;;;26.33;45.80;100630.06;4886006;29;45531;-63
2022/08/04 06:04:38;;;;;;;;;8.80;4.20;;;;;26.33;46.09;100629.22;4854180;29;45425;-62
2022/08/04 06:07:04;;;;;;;;;3.00;3.00;;;;;26.45;45.75;100628.63;4854703;29;45316;-62
2022/08/04 06:09:30;;;;;;;;;4.50;3.25;;;;;26.44;45.91;100625.00;4886068;29;46769;-61
2022/08/04 06:11:57;;;;;;;;;3.25;3.00;;;;;26.27;46.16;100602.38;4869305;29;45444;-62
2022/08/04 06:14:23;;;;;;;;;5.40;4.00;;;;;26.42;46.09;100624.50;4854004;29;45691;-62
2022/08/04 06:16:48;;;;;;;;;7.00;4.25;;;;;26.27;46.20;100616.44;4869593;29;45408;-63
2022/08/04 06:19:14;;;;;;;;;4.00;3.25;;;;;26.26;46.27;100615.63;4886082;29;46646;-62
2022/08/04 06:21:42;;;;;;;;;6.00;3.50;;;;;26.51;45.51;100636.63;4853491;29;45568;-60
2022/08/04 06:24:10;;;;;;;;;3.80;3.80;;;;;26.55;45.63;100619.06;4854751;29;45274;-63
2022/08/04 06:26:35;;;;;;;;;3.00;3.00;;;;;26.57;45.64;100625.22;4835291;29;45503;-61
2022/08/04 06:29:02;;;;;;;;;4.00;3.00;;;;;26.61;45.59;100631.84;4850326;29;46548;-58
2022/08/04 06:31:45;;;;;;;;;3.40;3.00;;;;;26.60;46.01;100633.84;4850189;29;45576;-58
2022/08/04 06:34:11;;;;;;;;;4.20;3.20;;;;;26.61;45.51;100632.69;4850985;29;45940;-60
2022/08/04 06:36:39;;;;;;;;;5.00;4.00;;;;;26.62;45.53;100634.34;4852670;29;45492;-62
2022/08/04 06:39:05;;;;;;;;;5.80;5.80;;;;;26.58;45.42;100636.16;4849345;29;45870;-59
2022/08/04 06:41:31;;;;;;;;;6.75;4.00;;;;;26.52;45.67;100641.06;4833368;29;45451;-59
2022/08/04 06:43:58;;;;;;;;;3.25;3.00;;;;;26.55;45.70;100648.03;4849308;29;45445;-57
2022/08/04 06:46:24;;;;;;;;;3.20;3.20;;;;;26.63;45.42;100646.44;4849377;29;45534;-62
2022/08/04 06:48:49;;;;;;;;;5.00;4.00;;;;;26.64;45.33;100646.09;4846899;29;45658;-62
2022/08/04 06:51:14;;;;;;;;;4.00;4.00;;;;;26.62;45.35;100644.78;4853848;29;45409;-60
2022/08/04 06:53:40;;;;;;;;;7.00;3.50;;;;;26.59;45.25;100649.06;4850140;29;45446;-62
2022/08/04 06:56:05;;;;;;;;;2.50;2.50;;;;;26.58;45.05;100661.50;4864683;29;45410;-60
2022/08/04 06:58:31;;;;;;;;;3.50;3.50;;;;;26.55;45.25;100653.69;4844986;29;45487;-59
2022/08/04 07:01:00;;;;;;;;;3.75;3.75;;;;;26.56;45.02;100660.97;4845675;29;45374;-61
2022/08/04 07:03:26;;;;;;;;;4.00;4.00;;;;;26.62;45.12;100665.28;4860685;29;45362;-59
2022/08/04 07:05:51;;;;;;;;;4.75;3.75;;;;;26.73;44.94;100667.84;4846396;29;45561;-59
2022/08/04 07:08:17;;;;;;;;;4.50;3.00;;;;;26.76;44.86;100662.38;4862662;29;45342;-62
2022/08/04 07:10:43;;;;;;;;;4.25;4.25;;;;;26.84;44.69;100657.13;4844633;29;45791;-57
2022/08/04 07:13:08;;;;;;;;;4.00;2.25;;;;;26.83;44.28;100642.19;4845993;29;45386;-61
2022/08/04 07:15:34;;;;;;;;;3.00;2.75;;;;;26.89;44.55;100645.72;4846179;29;45360;-62
2022/08/04 07:18:02;;;;;;;;;2.00;2.00;;;;;27.06;44.08;100676.75;4845141;29;46204;-57
2022/08/04 07:20:28;;;;;;;;;4.20;3.80;;;;;27.07;43.98;100669.16;4862729;29;45419;-62
2022/08/04 07:22:53;;;;;;;;;6.25;4.50;;;;;27.14;43.96;100674.28;4845636;29;45399;-62
2022/08/04 07:25:19;;;;;;;;;3.50;2.25;;;;;27.16;43.87;100675.63;4845542;29;45495;-62
2022/08/04 07:27:44;;;;;;;;;5.75;4.00;;;;;27.15;43.82;100679.59;4853838;29;46620;-61
2022/08/04 07:30:10;;;;;;;;;5.75;5.50;;;;;27.10;44.39;100688.19;4881496;29;45373;-60
2022/08/04 07:32:40;;;;;;;;;2.00;2.00;;;;;26.99;44.57;100676.41;4863748;29;45448;-62
2022/08/04 07:35:06;;;;;;;;;9.80;6.00;;;;;27.10;44.24;100688.19;4849124;29;45597;-59
2022/08/04 07:37:31;;;;;;;;;3.00;3.00;;;;;27.06;43.81;100671.13;4880868;29;46635;-55
2022/08/04 07:39:57;;;;;;;;;5.50;5.50;;;;;27.25;43.75;100694.56;4880332;29;45791;-58
2022/08/04 07:42:22;;;;;;;;;4.50;4.50;;;;;27.11;44.25;100687.03;4863981;29;45375;-58
2022/08/04 07:44:48;;;;;;;;;5.25;4.75;;;;;27.05;44.27;100665.84;4848634;29;45652;-58
2022/08/04 07:47:13;;;;;;;;;5.50;3.75;;;;;27.08;43.92;100661.53;4847846;29;47418;-57
2022/08/04 07:49:41;;;;;;;;;5.50;4.00;;;;;27.12;44.19;100682.25;4880640;29;45422;-56
2022/08/04 07:52:06;;;;;;;;;4.20;4.20;;;;;27.03;44.59;100683.06;4864077;29;45630;-57
2022/08/04 07:54:32;;;;;;;;;4.00;4.00;;;;;27.13;44.66;100701.66;4821905;29;45535;-55
2022/08/04 07:56:57;;;;;;;;;6.75;4.50;;;;;27.06;44.85;100687.22;4863442;29;45516;-56
2022/08/04 07:59:23;;;;;;;;;5.50;3.00;;;;;27.11;45.02;100712.38;4863888;29;45383;-56
2022/08/04 08:01:49;;;;;;;;;3.00;3.00;;;;;27.08;45.37;100720.66;4880057;29;45361;-59
2022/08/04 08:04:14;;;;;;;;;3.00;3.00;;;;;27.02;45.02;100723.66;4864306;29;45605;-60
2022/08/04 08:06:40;;;;;;;;;5.50;4.50;;;;;27.05;45.39;100713.72;4863660;29;45700;-61
2022/08/04 08:09:12;;;;;;;;;6.00;6.00;;;;;27.05;44.88;100714.53;4879705;29;45461;-54
2022/08/04 08:11:37;;;;;;;;;7.40;6.80;;;;;26.88;45.47;100697.53;4863852;29;45472;-56
2022/08/04 08:14:03;;;;;;;;;6.25;4.75;;;;;26.92;45.67;100724.75;4880589;29;45312;-57
2022/08/04 08:16:28;;;;;;;;;7.50;4.50;;;;;26.87;45.45;100727.69;4878627;29;46054;-56
2022/08/04 08:18:54;;;;;;;;;6.00;5.50;;;;;26.92;45.46;100723.91;4863490;29;45374;-58
2022/08/04 08:21:21;;;;;;;;;4.20;2.40;;;;;26.86;46.08;100728.00;4863704;29;45493;-58
2022/08/04 08:23:47;;;;;;;;;4.80;4.80;;;;;26.85;47.13;100744.06;4863450;29;45549;-58
2022/08/04 08:26:12;;;;;;;;;6.50;5.25;;;;;26.85;47.42;100746.03;4848090;29;46686;-56
2022/08/04 08:28:38;;;;;;;;;3.75;3.75;;;;;26.87;47.50;100743.72;4880136;29;45326;-58
2022/08/04 08:31:04;;;;;;;;;4.80;4.80;;;;;26.70;48.03;100719.13;4863460;29;45492;-58
2022/08/04 08:33:29;;;;;;;;;3.00;3.00;;;;;26.66;48.75;100724.56;4863606;29;45614;-58
2022/08/04 08:36:10;;;;;;;;;6.00;3.75;;;;;26.57;48.57;100735.78;4863491;29;45538;-56
2022/08/04 08:38:54;;;;;;;;;4.40;3.40;;;;;26.53;48.93;100729.97;4879729;29;45486;-57
2022/08/04 08:41:54;;;;;;;;;3.00;3.00;;;;;26.53;48.50;100746.03;4879191;29;45343;-57
2022/08/04 08:44:28;;;;;;;;;6.00;4.00;;;;;26.59;48.34;100761.63;4880137;29;45312;-57
2022/08/04 08:47:03;;;;;;;;;4.00;2.00;;;;;26.41;48.74;100704.41;4879156;29;46870;-57
2022/08/04 08:49:47;;;;;;;;;3.20;3.20;;;;;26.68;48.59;100752.41;4848153;29;45380;-59
2022/08/04 08:52:53;;;;;;;;;5.00;3.80;;;;;26.61;48.44;100736.81;4880497;29;45426;-57
2022/08/04 08:55:50;;;;;;;;;5.00;3.00;;;;;26.63;48.53;100736.50;4866058;29;46244;-58
2022/08/04 08:58:22;;;;;;;;;3.80;3.80;;;;;26.70;48.64;100734.06;4865410;29;45447;-58
2022/08/04 09:01:41;;;;;;;;;2.00;2.00;;;;;26.69;48.61;100725.91;4847481;29;45806;-56
2022/08/04 09:04:22;;;;;;;;;2.00;2.00;;;;;26.79;48.53;100728.47;4803189;29;45408;-57
2022/08/04 09:07:09;;;;;;;;;3.00;3.00;;;;;26.66;48.33;100718.94;4880656;29;45356;-58
2022/08/04 09:09:45;;;;;;;;;3.20;1.00;;;;;26.73;48.02;100724.94;4878931;29;46430;-54
2022/08/04 09:12:41;;;;;;;;;4.20;2.80;;;;;26.95;47.87;100745.81;4863012;29;45389;-59
2022/08/04 09:15:29;;;;;;;;;3.20;2.00;;;;;27.03;47.74;100745.00;4879489;29;45335;-56
2022/08/04 09:18:21;;;;;;;;;2.00;2.00;;;;;27.01;46.66;100752.94;4869439;29;45364;-53
2022/08/04 09:21:01;;;;;;;;;6.00;3.00;;;;;27.01;47.23;100752.13;4858393;29;45729;-60
2022/08/04 09:23:48;;;;;;;;;4.00;3.00;;;;;27.18;46.63;100763.47;4862817;29;45548;-55
2022/08/04 09:26:25;;;;;;;;;3.60;3.60;;;;;27.26;46.59;100763.81;4863231;29;45452;-57
2022/08/04 09:28:59;;;;;;;;;2.00;2.00;;;;;27.32;46.45;100771.78;4845164;29;45543;-50
2022/08/04 09:31:34;;;;;;;;;1.00;1.00;;;;;27.39;46.24;100764.84;4824490;29;45462;-59
2022/08/04 09:34:31;;;;;;;;;1.80;1.80;;;;;27.42;46.36;100767.84;4843361;29;45441;-56
2022/08/04 09:37:41;;;;;;;;;2.20;2.20;;;;;27.49;46.58;100760.91;4859736;29;45366;-58
2022/08/04 09:40:15;;;;;;;;;4.00;2.80;;;;;27.57;46.49;100765.75;4861192;29;45486;-53
2022/08/04 09:43:18;;;;;;;;;2.20;2.20;;;;;27.74;46.04;100767.78;4844026;29;46415;-65
2022/08/04 09:45:49;;;;;;;;;2.60;2.60;;;;;27.82;46.15;100769.81;4868569;29;45411;-55
2022/08/04 09:48:27;;;;;;;;;3.20;3.00;;;;;27.72;46.52;100767.28;4863038;29;45493;-59
2022/08/04 09:50:56;;;;;;;;;4.20;4.00;;;;;27.60;46.95;100756.66;4842131;29;45510;-57
2022/08/04 09:53:44;;;;;;;;;2.00;2.00;;;;;27.74;46.92;100765.81;4847178;29;45707;-60
2022/08/04 09:56:17;;;;;;;;;3.20;1.40;;;;;27.79;46.03;100772.47;4863309;29;45865;-56
2022/08/04 09:59:00;;;;;;;;;1.20;1.20;;;;;27.70;46.24;100767.59;4838736;29;45460;-54
2022/08/04 10:01:27;;;;;;;;;2.00;2.00;;;;;27.71;46.44;100762.81;4863866;29;45448;-54
2022/08/04 10:04:03;;;;;;;;;2.60;1.00;;;;;27.60;46.81;100759.47;4861768;29;46789;-56
2022/08/04 10:06:48;;;;;;;;;2.00;2.00;;;;;27.43;46.57;100746.16;4862602;29;45352;-52
2022/08/04 10:09:20;;;;;;;;;3.80;2.80;;;;;27.37;46.60;100756.72;4864490;29;45543;-55
2022/08/04 10:12:12;;;;;;;;;2.20;2.20;;;;;27.49;47.11;100763.72;4861726;29;45574;-54
2022/08/04 10:14:46;;;;;;;;;3.00;2.60;;;;;27.47;46.66;100756.44;4842738;29;46006;-55
2022/08/04 10:17:49;;;;;;;;;2.00;2.00;;;;;27.45;46.83;100767.22;4873159;29;45804;-57
2022/08/04 10:20:30;;;;;;;;;3.40;2.00;;;;;27.27;47.07;100759.84;4872935;29;45592;-56
2022/08/04 10:23:18;;;;;;;;;2.00;2.00;;;;;27.27;47.55;100760.66;4855700;29;45578;-51
2022/08/04 10:25:47;;;;;;;;;3.20;3.00;;;;;27.35;47.58;100767.50;4852540;29;46355;-60
2022/08/04 10:28:16;;;;;;;;;3.00;3.00;;;;;27.47;46.92;100759.25;4877230;29;45469;-55
2022/08/04 10:30:46;;;;;;;;;3.40;2.80;;;;;27.60;47.20;100759.47;4877708;29;45440;-57
2022/08/04 10:33:20;;;;;;;;;2.60;2.00;;;;;27.74;46.65;100773.41;4860922;29;45387;-55
2022/08/04 10:36:03;;;;;;;;;3.00;2.00;;;;;27.70;46.67;100761.16;4860806;29;45677;-54
2022/08/04 10:38:41;;;;;;;;;2.00;2.00;;;;;27.67;46.72;100762.66;4848422;29;45438;-56
2022/08/04 10:41:11;;;;;;;;;1.60;1.60;;;;;27.76;46.83;100764.63;4860440;29;45761;-59
2022/08/04 10:44:14;;;;;;;;;2.60;0.60;;;;;27.79;46.77;100761.19;4860962;29;45680;-56
2022/08/04 10:46:46;;;;;;;;;2.20;1.80;;;;;27.64;46.79;100723.81;4877517;29;45535;-57
2022/08/04 10:49:27;;;;;;;;;3.00;3.00;;;;;27.57;46.44;100726.31;4843547;29;45480;-57
2022/08/04 10:52:05;;;;;;;;;1.80;1.80;;;;;27.67;47.11;100740.09;4859528;29;46142;-60
2022/08/04 10:54:46;;;;;;;;;3.00;3.00;;;;;27.23;47.57;100665.88;4839356;29;45732;-57
2022/08/04 10:57:39;;;;;;;;;2.00;2.00;;;;;27.70;47.07;100728.16;4843173;29;46746;-57
2022/08/04 11:00:18;;;;;;;;;1.00;1.00;;;;;27.69;46.93;100732.13;4834151;29;45928;-56
2022/08/04 11:03:00;;;;;;;;;3.00;1.00;;;;;27.74;46.88;100719.84;4859557;29;45518;-58
2022/08/04 11:05:38;;;;;;;;;0.40;0.40;;;;;27.87;47.20;100744.25;4845668;29;45565;-57
2022/08/04 11:08:10;;;;;;;;;2.00;2.00;;;;;27.86;46.85;100739.78;4875716;29;45873;-59
2022/08/04 11:10:45;;;;;;;;;1.60;1.20;;;;;27.94;46.77;100732.50;4841710;29;45977;-58
2022/08/04 11:13:13;;;;;;;;;2.40;2.00;;;;;27.97;46.27;100731.00;4860180;29;46081;-60
2022/08/04 11:15:51;;;;;;;;;4.00;2.80;;;;;27.95;46.43;100713.59;4836654;29;45627;-54
2022/08/04 11:18:39;;;;;;;;;1.00;1.00;;;;;28.12;46.56;100740.97;4861898;29;46597;-58
2022/08/04 11:21:17;;;;;;;;;1.00;1.00;;;;;28.12;46.42;100732.50;4846689;29;45366;-59
2022/08/04 11:23:51;;;;;;;;;1.00;1.00;;;;;28.19;46.37;100737.63;4846291;29;45517;-57
2022/08/04 11:26:40;;;;;;;;;1.00;1.00;;;;;28.30;45.92;100735.31;4860626;29;45469;-60
2022/08/04 11:29:32;;;;;;;;;2.60;2.00;;;;;28.22;46.11;100705.97;4861032;29;45496;-54
2022/08/04 11:31:59;;;;;;;;;2.80;2.80;;;;;28.39;45.00;100722.84;4838780;29;45525;-55
2022/08/04 11:34:25;;;;;;;;;2.00;2.00;;;;;28.48;44.96;100731.31;4877348;29;45544;-57
2022/08/04 11:37:17;;;;;;;;;1.00;1.00;;;;;28.59;45.38;100747.91;4860909;29;45403;-55
2022/08/04 11:39:44;;;;;;;;;2.80;2.80;;;;;28.43;44.63;100710.91;4877052;29;46741;-54
2022/08/04 11:42:25;;;;;;;;;3.20;3.00;;;;;28.48;44.87;100720.03;4845102;29;45443;-59
2022/08/04 11:44:53;;;;;;;;;1.80;1.80;;;;;28.53;45.13;100725.50;4860788;29;45558;-60
2022/08/04 11:47:59;;;;;;;;;3.60;1.60;;;;;28.70;44.56;100745.56;4845333;29;45716;-58
2022/08/04 11:50:40;;;;;;;;;2.00;2.00;;;;;28.86;44.93;100740.22;4851837;29;45482;-59
2022/08/04 11:53:06;;;;;;;;;2.60;2.00;;;;;29.03;44.07;100742.97;4861453;29;45365;-56
2022/08/04 11:55:31;;;;;;;;;5.00;3.00;;;;;29.07;43.89;100748.78;4845362;29;45421;-60
2022/08/04 11:57:57;;;;;;;;;2.25;2.25;;;;;29.07;43.92;100746.78;4829739;29;45856;-60
2022/08/04 12:00:24;;;;;;;;;2.75;2.25;;;;;29.06;44.10;100731.00;4877210;29;46921;-60
2022/08/04 12:02:55;;;;;;;;;1.80;1.20;;;;;29.25;44.05;100748.69;4859360;29;45862;-57